Latina, Latina Air Base (LIRL)

NameLatina Air Base
CityLatina
CountryItaly
ICAOLIRL
IATAQLT
Altitude28 m
CoordinatesGoogle Map
Live Air TrafficLiveATC.net
METARLIRL 201755Z 30006KT CAVOK 27/16 Q1013
2019-06-20 17:55:00 Wind: West-Northwest (300°) 3.09 m/s - Visibility: > 10000 m - Weather: CAVOK - Temperature: 27 °C - Dew point: 16 °C - Humidity: 51% - Pressure: 1013 hPa

Sorry, no flights used the airport in this database.